Time;durP1;ratioP1;P1;durP2;ratioP2;P2;SDS_P1;SDS_P2;PMS_P1;PMS_P2;Temp;Humidity;BMP_temperature;BMP_pressure;BME280_temperature;BME280_humidity;BME280_pressure;Samples;Min_cycle;Max_cycle;Signal;HPM_P1;HPM_P2
2022/06/11 00:01:28;;;;;;;9.02;5.80;;;16.80;99.90;;;;;;5053389;28;20080;-81
2022/06/11 00:03:58;;;;;;;7.95;5.00;;;16.90;99.90;;;;;;5053251;28;20107;-81
2022/06/11 00:06:25;;;;;;;8.85;5.68;;;16.90;99.90;;;;;;5053016;28;20041;-82
2022/06/11 00:08:51;;;;;;;12.40;5.85;;;16.80;99.90;;;;;;5035281;28;20041;-80
2022/06/11 00:11:17;;;;;;;10.32;5.50;;;16.80;99.90;;;;;;5053111;28;20514;-79
2022/06/11 00:13:43;;;;;;;11.13;5.55;;;16.80;99.90;;;;;;5052870;28;20048;-81
2022/06/11 00:16:09;;;;;;;9.50;5.70;;;16.90;99.90;;;;;;5034958;28;20132;-79
2022/06/11 00:18:37;;;;;;;10.80;5.70;;;16.80;99.90;;;;;;5053126;28;20041;-79
2022/06/11 00:21:04;;;;;;;11.38;6.00;;;16.70;99.90;;;;;;5053039;28;20052;-79
2022/06/11 00:23:30;;;;;;;9.95;5.88;;;16.70;99.90;;;;;;5053038;28;20049;-78
2022/06/11 00:25:56;;;;;;;10.90;4.28;;;16.60;99.90;;;;;;5053081;28;20055;-78
2022/06/11 00:28:22;;;;;;;9.40;4.47;;;16.60;99.90;;;;;;5052570;28;20037;-81
2022/06/11 00:30:48;;;;;;;11.82;4.20;;;16.60;99.90;;;;;;5052766;28;20052;-79
2022/06/11 00:33:14;;;;;;;8.48;4.35;;;16.60;99.90;;;;;;5052665;28;20041;-82
2022/06/11 00:35:41;;;;;;;8.52;3.17;;;16.40;99.90;;;;;;5052467;28;20041;-81
2022/06/11 00:38:07;;;;;;;9.18;3.97;;;16.40;99.90;;;;;;5052144;28;20063;-81
2022/06/11 00:40:35;;;;;;;9.93;3.97;;;16.30;99.90;;;;;;5051953;28;20585;-81
2022/06/11 00:43:02;;;;;;;11.63;3.65;;;16.20;99.90;;;;;;5052632;28;20081;-82
2022/06/11 00:45:35;;;;;;;9.68;3.80;;;16.10;99.90;;;;;;5052198;28;20041;-82
2022/06/11 00:48:14;;;;;;;13.68;3.95;;;16.10;99.90;;;;;;5034692;28;20060;-83
2022/06/11 00:50:47;;;;;;;9.18;3.55;;;16.00;99.90;;;;;;5052598;28;20045;-81
2022/06/11 00:53:30;;;;;;;11.60;3.80;;;16.00;99.90;;;;;;5052455;28;20041;-80
2022/06/11 00:55:55;;;;;;;7.90;3.40;;;15.90;99.90;;;;;;5034190;28;20495;-80
2022/06/11 00:58:25;;;;;;;10.10;3.47;;;15.90;99.90;;;;;;5034322;28;20041;-80
2022/06/11 01:00:55;;;;;;;9.90;3.88;;;15.90;99.90;;;;;;5051808;28;20498;-80
2022/06/11 01:03:24;;;;;;;12.07;4.20;;;16.00;99.90;;;;;;5052299;28;20045;-81
2022/06/11 01:06:21;;;;;;;10.63;3.60;;;15.70;99.90;;;;;;5052006;28;20044;-82
2022/06/11 01:09:06;;;;;;;10.50;3.20;;;15.70;99.90;;;;;;5052136;28;20045;-82
2022/06/11 01:11:50;;;;;;;10.40;2.67;;;15.60;99.90;;;;;;5034088;28;20141;-80
2022/06/11 01:14:34;;;;;;;11.68;2.67;;;15.50;99.90;;;;;;5034091;28;20159;-82
2022/06/11 01:17:14;;;;;;;8.63;2.10;;;15.50;99.90;;;;;;5033873;28;20048;-80
2022/06/11 01:20:01;;;;;;;10.35;2.80;;;15.40;99.90;;;;;;5033833;28;20053;-80
2022/06/11 01:22:57;;;;;;;15.32;3.00;;;15.30;99.90;;;;;;5052062;28;20049;-81
2022/06/11 01:25:44;;;;;;;10.68;2.70;;;15.30;99.90;;;;;;5051773;28;20045;-80
2022/06/11 01:28:18;;;;;;;9.35;2.40;;;15.20;99.90;;;;;;5051569;28;20071;-80
2022/06/11 01:31:12;;;;;;;11.82;2.50;;;15.20;99.90;;;;;;5051728;28;20388;-80
2022/06/11 01:34:15;;;;;;;8.73;2.60;;;15.20;99.90;;;;;;5034389;28;20480;-81
2022/06/11 01:36:44;;;;;;;7.55;2.33;;;15.20;99.90;;;;;;5033941;28;20049;-81
2022/06/11 01:39:36;;;;;;;10.65;2.38;;;15.20;99.90;;;;;;5033349;28;20056;-80
2022/06/11 01:42:12;;;;;;;10.63;2.67;;;15.10;99.90;;;;;;5051198;28;20098;-80
2022/06/11 01:44:40;;;;;;;10.73;2.80;;;15.10;99.90;;;;;;5033899;28;20052;-80
2022/06/11 01:47:07;;;;;;;8.13;1.95;;;15.30;99.90;;;;;;5051150;28;20091;-80
2022/06/11 01:49:39;;;;;;;13.80;2.67;;;15.00;99.90;;;;;;5050958;28;20040;-80
2022/06/11 01:52:29;;;;;;;10.95;2.95;;;14.90;99.90;;;;;;5051362;28;20052;-81
2022/06/11 01:55:12;;;;;;;11.18;2.45;;;14.90;99.90;;;;;;5033281;28;20056;-80
2022/06/11 01:58:03;;;;;;;9.93;2.13;;;14.80;99.90;;;;;;5051251;28;20055;-81
2022/06/11 02:00:43;;;;;;;8.90;1.90;;;14.80;99.90;;;;;;5051286;28;20044;-80
2022/06/11 02:03:32;;;;;;;9.85;2.40;;;14.70;99.90;;;;;;5050839;28;20532;-81
2022/06/11 02:06:01;;;;;;;11.52;2.55;;;14.70;99.90;;;;;;5050910;28;20686;-80
2022/06/11 02:08:56;;;;;;;14.38;2.85;;;14.60;99.90;;;;;;5050981;28;20048;-80
2022/06/11 02:11:30;;;;;;;13.10;2.40;;;14.60;99.90;;;;;;5033071;28;20044;-81
2022/06/11 02:14:10;;;;;;;10.95;2.67;;;14.50;99.90;;;;;;5050971;28;20053;-81
2022/06/11 02:16:47;;;;;;;12.43;2.30;;;14.50;99.90;;;;;;5050589;28;20128;-81
2022/06/11 02:19:25;;;;;;;12.75;3.25;;;14.40;99.90;;;;;;5050699;28;20049;-80
2022/06/11 02:22:08;;;;;;;8.15;1.80;;;14.30;99.90;;;;;;5050824;28;20084;-81
2022/06/11 02:24:49;;;;;;;11.27;2.53;;;14.30;99.90;;;;;;5050805;28;20059;-78
2022/06/11 02:27:18;;;;;;;12.77;2.20;;;14.40;99.90;;;;;;5050841;28;20095;-79
2022/06/11 02:29:46;;;;;;;11.15;2.08;;;14.30;99.90;;;;;;5050436;28;20053;-79
2022/06/11 02:32:15;;;;;;;9.32;3.10;;;14.30;99.90;;;;;;5050366;28;20053;-81
2022/06/11 02:34:46;;;;;;;11.82;2.30;;;14.50;99.90;;;;;;5050603;28;20083;-80
2022/06/11 02:37:32;;;;;;;15.85;2.60;;;14.20;99.90;;;;;;5050571;28;20044;-79
2022/06/11 02:40:04;;;;;;;12.38;2.55;;;14.20;99.90;;;;;;5050709;28;20053;-80
2022/06/11 02:42:30;;;;;;;8.32;2.70;;;14.20;99.90;;;;;;5050251;28;20053;-81
2022/06/11 02:44:55;;;;;;;15.57;3.38;;;14.10;99.90;;;;;;5032653;28;20053;-80
2022/06/11 02:47:22;;;;;;;8.18;2.35;;;14.10;99.90;;;;;;5032427;28;20037;-80
2022/06/11 02:49:48;;;;;;;8.13;2.60;;;14.30;99.90;;;;;;5032433;28;20098;-80
2022/06/11 02:52:20;;;;;;;13.57;2.80;;;14.00;99.90;;;;;;5050398;28;20068;-80
2022/06/11 02:54:49;;;;;;;8.73;2.45;;;13.90;99.90;;;;;;5032375;28;20083;-79
2022/06/11 02:57:22;;;;;;;12.35;2.75;;;13.90;99.90;;;;;;5032726;28;20061;-80
2022/06/11 02:59:48;;;;;;;9.07;2.70;;;13.90;99.90;;;;;;5050463;28;20049;-81
2022/06/11 03:02:14;;;;;;;15.55;3.60;;;13.80;99.90;;;;;;5033541;28;20049;-80
2022/06/11 03:04:40;;;;;;;9.43;2.72;;;13.90;99.90;;;;;;5054155;28;20458;-81
2022/06/11 03:07:08;;;;;;;11.65;2.60;;;13.80;99.90;;;;;;5036735;28;20048;-81
2022/06/11 03:09:35;;;;;;;12.48;2.78;;;13.70;99.90;;;;;;5054772;28;20052;-80
2022/06/11 03:12:03;;;;;;;12.60;2.58;;;13.70;99.90;;;;;;5036867;28;20167;-79
2022/06/11 03:14:29;;;;;;;10.55;2.60;;;13.70;99.90;;;;;;5054491;28;20136;-80
2022/06/11 03:16:55;;;;;;;10.07;2.80;;;13.70;99.90;;;;;;5054097;28;20160;-80
2022/06/11 03:19:21;;;;;;;9.10;2.63;;;13.70;99.90;;;;;;5035908;28;20178;-81
2022/06/11 03:21:53;;;;;;;10.98;2.83;;;13.60;99.90;;;;;;5054145;28;20130;-80
2022/06/11 03:24:21;;;;;;;15.25;2.90;;;13.60;99.90;;;;;;5019289;28;20052;-80
2022/06/11 03:26:48;;;;;;;17.20;3.10;;;13.60;99.90;;;;;;5036325;28;20060;-80
2022/06/11 03:29:15;;;;;;;7.95;2.72;;;13.80;99.90;;;;;;5054257;28;20057;-80
2022/06/11 03:31:43;;;;;;;9.18;2.65;;;13.60;99.90;;;;;;5054218;28;20365;-80
2022/06/11 03:34:09;;;;;;;13.52;3.75;;;13.80;99.90;;;;;;5053886;28;20053;-80
2022/06/11 03:36:35;;;;;;;13.25;3.83;;;13.50;99.90;;;;;;5053875;28;20480;-80
2022/06/11 03:39:02;;;;;;;14.10;3.70;;;13.50;99.90;;;;;;5036236;28;20053;-79
2022/06/11 03:41:28;;;;;;;15.00;4.05;;;13.50;99.90;;;;;;5035860;28;20057;-80
2022/06/11 03:43:53;;;;;;;13.68;3.85;;;13.80;99.90;;;;;;5053549;28;20060;-79
2022/06/11 03:46:20;;;;;;;12.68;2.95;;;13.50;99.90;;;;;;5053747;28;20057;-80
2022/06/11 03:48:47;;;;;;;12.07;3.70;;;13.70;99.90;;;;;;5053922;28;20030;-79
2022/06/11 03:51:13;;;;;;;16.27;4.07;;;13.50;99.90;;;;;;5053369;28;20052;-79
2022/06/11 03:53:41;;;;;;;14.85;3.50;;;13.50;99.90;;;;;;5054006;28;20040;-79
2022/06/11 03:56:08;;;;;;;12.35;3.72;;;13.50;99.90;;;;;;5035761;28;20044;-79
2022/06/11 03:58:36;;;;;;;15.70;4.07;;;13.60;99.90;;;;;;5053517;28;20140;-79
2022/06/11 04:01:16;;;;;;;13.73;3.33;;;13.60;99.90;;;;;;5053463;28;20106;-78
2022/06/11 04:03:45;;;;;;;14.93;3.53;;;13.60;99.90;;;;;;5053352;28;20455;-81
2022/06/11 04:06:12;;;;;;;17.35;4.00;;;13.80;99.90;;;;;;5053002;28;20091;-79
2022/06/11 04:08:39;;;;;;;22.83;4.10;;;13.60;99.90;;;;;;5035562;28;20053;-81
2022/06/11 04:11:05;;;;;;;17.35;3.90;;;13.90;99.90;;;;;;5035514;28;20438;-80
2022/06/11 04:13:33;;;;;;;15.45;3.42;;;13.70;99.90;;;;;;5052756;28;20115;-81
2022/06/11 04:16:01;;;;;;;13.88;3.40;;;13.90;99.90;;;;;;5053095;28;20084;-81
2022/06/11 04:18:31;;;;;;;18.85;4.35;;;14.00;99.90;;;;;;5053136;28;20041;-78
2022/06/11 04:20:57;;;;;;;18.25;3.70;;;13.90;99.90;;;;;;5052983;28;20074;-81
2022/06/11 04:23:29;;;;;;;14.75;3.75;;;13.90;99.90;;;;;;5018124;28;20132;-80
2022/06/11 04:25:59;;;;;;;14.82;3.50;;;13.90;99.90;;;;;;5052983;28;20051;-81
2022/06/11 04:28:29;;;;;;;16.02;4.30;;;14.00;99.90;;;;;;5052869;28;20169;-79
2022/06/11 04:30:57;;;;;;;13.25;3.90;;;14.00;99.90;;;;;;5034878;28;20123;-78
2022/06/11 04:33:23;;;;;;;20.70;3.75;;;14.10;99.90;;;;;;5053077;28;20076;-79
2022/06/11 04:35:49;;;;;;;10.68;3.10;;;14.10;99.90;;;;;;5052763;28;20069;-81
2022/06/11 04:38:16;;;;;;;18.80;4.35;;;14.20;99.90;;;;;;5035089;28;20406;-81
2022/06/11 04:40:41;;;;;;;21.30;3.97;;;14.30;99.90;;;;;;5052387;28;20092;-78
2022/06/11 04:43:07;;;;;;;17.17;3.33;;;14.30;99.90;;;;;;5034986;28;20077;-80
2022/06/11 04:45:33;;;;;;;22.45;4.10;;;14.30;99.90;;;;;;5053011;28;20051;-81
2022/06/11 04:47:58;;;;;;;17.17;3.92;;;14.40;99.90;;;;;;5035018;28;20088;-79
2022/06/11 04:50:24;;;;;;;11.77;3.22;;;14.40;99.90;;;;;;5034606;28;20049;-78
2022/06/11 04:52:50;;;;;;;14.80;3.33;;;14.70;99.90;;;;;;5052354;28;20115;-79
2022/06/11 04:55:16;;;;;;;18.33;4.10;;;14.50;99.90;;;;;;5034747;28;20045;-80
2022/06/11 04:57:44;;;;;;;21.00;4.00;;;14.60;99.90;;;;;;5034797;28;20053;-78
2022/06/11 05:00:11;;;;;;;16.60;4.28;;;14.60;99.90;;;;;;5052386;28;20719;-81
2022/06/11 05:02:37;;;;;;;16.42;3.60;;;14.60;99.90;;;;;;5034631;28;20540;-78
2022/06/11 05:05:04;;;;;;;15.65;3.55;;;14.70;99.90;;;;;;5052414;28;20041;-77
2022/06/11 05:07:29;;;;;;;15.40;3.80;;;14.80;99.90;;;;;;5052048;28;20033;-78
2022/06/11 05:09:55;;;;;;;22.45;4.57;;;15.00;99.90;;;;;;5034052;28;20174;-77
2022/06/11 05:12:21;;;;;;;17.80;4.20;;;14.90;99.90;;;;;;5034077;28;20053;-78
2022/06/11 05:14:46;;;;;;;17.77;3.53;;;15.00;99.90;;;;;;5017365;28;20063;-79
2022/06/11 05:17:12;;;;;;;14.43;3.50;;;15.00;99.90;;;;;;5051935;28;20041;-78
2022/06/11 05:19:38;;;;;;;17.20;4.10;;;15.10;99.90;;;;;;5034515;28;20049;-83
2022/06/11 05:22:04;;;;;;;19.17;4.20;;;15.20;99.90;;;;;;5033762;28;20122;-80
2022/06/11 05:24:30;;;;;;;16.80;3.88;;;15.20;99.90;;;;;;5051123;28;20052;-79
2022/06/11 05:27:06;;;;;;;23.55;3.97;;;15.30;99.90;;;;;;5051802;28;20036;-80
2022/06/11 05:29:48;;;;;;;20.90;4.18;;;15.40;99.90;;;;;;5051638;28;20049;-81
2022/06/11 05:32:17;;;;;;;25.67;4.55;;;15.50;99.90;;;;;;5051931;28;20045;-79
2022/06/11 05:34:44;;;;;;;16.15;3.67;;;15.60;99.90;;;;;;5033847;28;20041;-80
2022/06/11 05:37:11;;;;;;;19.05;4.60;;;15.60;99.90;;;;;;5033959;28;20045;-80
2022/06/11 05:39:37;;;;;;;16.70;3.85;;;15.70;99.90;;;;;;5051561;28;20032;-80
2022/06/11 05:42:03;;;;;;;19.55;4.15;;;15.70;99.90;;;;;;5051574;28;20107;-79
2022/06/11 05:44:28;;;;;;;21.75;5.25;;;15.80;99.90;;;;;;5051481;28;20040;-79
2022/06/11 05:46:54;;;;;;;21.55;3.70;;;15.90;99.90;;;;;;5051750;28;20393;-80
2022/06/11 05:49:28;;;;;;;24.88;5.32;;;15.90;99.90;;;;;;5051641;28;20044;-79
2022/06/11 05:51:58;;;;;;;24.25;5.47;;;16.00;99.90;;;;;;5051474;28;20566;-81
2022/06/11 05:54:27;;;;;;;27.40;4.75;;;16.10;99.90;;;;;;5033644;28;20060;-79
2022/06/11 05:56:54;;;;;;;26.17;4.40;;;16.20;99.90;;;;;;5051574;28;20072;-79
2022/06/11 05:59:26;;;;;;;27.13;4.60;;;16.20;99.90;;;;;;5051778;28;20127;-79
2022/06/11 06:01:52;;;;;;;20.58;4.78;;;16.40;99.90;;;;;;5051667;28;20049;-80
2022/06/11 06:04:18;;;;;;;23.95;4.63;;;16.40;99.90;;;;;;5033422;28;20045;-79
2022/06/11 06:06:44;;;;;;;21.45;4.72;;;16.40;99.90;;;;;;5051362;28;20052;-79
2022/06/11 06:09:09;;;;;;;27.73;4.95;;;16.40;99.90;;;;;;5051201;28;20045;-81
2022/06/11 06:11:35;;;;;;;20.55;4.40;;;16.60;99.90;;;;;;5033341;28;20131;-77
2022/06/11 06:14:01;;;;;;;25.90;5.07;;;16.60;99.90;;;;;;5051654;28;20858;-80
2022/06/11 06:16:32;;;;;;;31.85;5.40;;;16.70;99.90;;;;;;5051485;28;20057;-79
2022/06/11 06:19:00;;;;;;;28.40;5.22;;;16.80;99.90;;;;;;5051156;28;20045;-79
2022/06/11 06:21:29;;;;;;;25.05;6.38;;;16.80;99.90;;;;;;5051252;28;20400;-80
2022/06/11 06:23:55;;;;;;;22.35;5.05;;;17.00;99.90;;;;;;5032939;28;20040;-76
2022/06/11 06:26:22;;;;;;;26.85;5.22;;;16.90;99.90;;;;;;5050875;28;20041;-78
2022/06/11 06:28:47;;;;;;;27.27;5.20;;;17.00;99.90;;;;;;5032950;28;20139;-79
2022/06/11 06:31:15;;;;;;;25.25;5.35;;;17.10;99.90;;;;;;5032906;28;20505;-77
2022/06/11 06:33:40;;;;;;;21.70;4.38;;;17.30;99.90;;;;;;5050746;28;20522;-79
2022/06/11 06:36:08;;;;;;;22.13;5.32;;;17.40;99.90;;;;;;5032805;28;20049;-77
2022/06/11 06:38:35;;;;;;;28.40;5.82;;;17.40;99.90;;;;;;5050731;28;20052;-79
2022/06/11 06:41:01;;;;;;;30.92;5.50;;;17.60;99.90;;;;;;5050231;28;20045;-78
2022/06/11 06:43:27;;;;;;;30.08;5.15;;;17.80;99.90;;;;;;5050547;28;20056;-82
2022/06/11 06:45:53;;;;;;;31.30;4.80;;;17.90;99.90;;;;;;5016501;28;20088;-81
2022/06/11 06:48:19;;;;;;;32.47;6.32;;;18.00;99.90;;;;;;5050483;28;20083;-81
2022/06/11 06:50:44;;;;;;;20.88;4.93;;;18.10;99.90;;;;;;5050509;28;20191;-79
2022/06/11 06:53:10;;;;;;;25.50;5.50;;;18.20;99.90;;;;;;5050479;28;20051;-80
2022/06/11 06:55:36;;;;;;;17.38;4.25;;;18.30;99.90;;;;;;5050197;28;20037;-80
2022/06/11 06:58:01;;;;;;;24.90;5.43;;;18.40;99.90;;;;;;5050276;28;20519;-79
2022/06/11 07:00:27;;;;;;;26.95;6.32;;;18.60;99.90;;;;;;5050276;28;20037;-80
2022/06/11 07:02:54;;;;;;;33.13;5.45;;;18.70;99.90;;;;;;5032660;28;20056;-81
2022/06/11 07:05:21;;;;;;;25.25;5.90;;;18.80;99.90;;;;;;5050461;28;20699;-80
2022/06/11 07:07:48;;;;;;;26.25;6.63;;;18.90;99.90;;;;;;5050273;28;20146;-81
2022/06/11 07:10:16;;;;;;;25.15;5.47;;;18.90;99.90;;;;;;5049850;28;20055;-79
2022/06/11 07:12:42;;;;;;;29.23;5.32;;;19.00;99.90;;;;;;5050272;28;20045;-77
2022/06/11 07:15:09;;;;;;;24.25;4.88;;;19.10;99.90;;;;;;5032230;28;20545;-83
2022/06/11 07:17:40;;;;;;;23.88;5.93;;;19.30;99.90;;;;;;5032333;28;20060;-82
2022/06/11 07:20:14;;;;;;;24.48;5.45;;;19.30;99.90;;;;;;5050344;28;20041;-80
2022/06/11 07:22:51;;;;;;;23.35;4.53;;;19.40;99.90;;;;;;5050278;28;20045;-80
2022/06/11 07:25:17;;;;;;;21.40;4.60;;;19.40;99.90;;;;;;5049926;28;20134;-79
2022/06/11 07:27:49;;;;;;;25.73;4.93;;;19.60;99.90;;;;;;5050396;28;20041;-80
2022/06/11 07:30:22;;;;;;;22.27;5.07;;;19.60;99.90;;;;;;5031958;28;20519;-82
2022/06/11 07:32:53;;;;;;;21.13;5.13;;;19.80;99.90;;;;;;5050158;28;20128;-80
2022/06/11 07:35:19;;;;;;;25.90;5.03;;;19.90;99.90;;;;;;5032111;28;20041;-81
2022/06/11 07:37:48;;;;;;;23.30;4.60;;;19.90;99.90;;;;;;5049938;28;20049;-81
2022/06/11 07:40:14;;;;;;;27.98;5.05;;;19.80;99.90;;;;;;5049803;28;20103;-80
2022/06/11 07:42:40;;;;;;;22.48;4.75;;;19.80;99.90;;;;;;5049796;28;20076;-80
2022/06/11 07:45:06;;;;;;;23.02;4.53;;;20.00;99.90;;;;;;5049992;28;20411;-81
2022/06/11 07:50:16;;;;;;;22.73;5.13;;;20.10;99.90;;;;;;5053537;28;20045;-81
2022/06/11 07:52:42;;;;;;;28.10;6.00;;;20.10;99.90;;;;;;5053532;28;20534;-80
2022/06/11 07:55:09;;;;;;;27.13;4.82;;;19.80;99.90;;;;;;5035808;28;20049;-82
2022/06/11 07:57:35;;;;;;;29.75;5.90;;;19.90;99.90;;;;;;5035363;28;20041;-77
2022/06/11 08:00:02;;;;;;;21.65;4.75;;;20.00;99.90;;;;;;5035684;28;20059;-78
2022/06/11 08:02:28;;;;;;;23.90;4.03;;;20.10;99.90;;;;;;5035591;28;20049;-78
2022/06/11 08:04:54;;;;;;;20.58;3.95;;;20.20;99.90;;;;;;5035689;28;20688;-81
2022/06/11 08:07:19;;;;;;;18.33;4.28;;;20.20;99.90;;;;;;5035665;28;20439;-81
2022/06/11 08:09:45;;;;;;;22.35;5.15;;;20.20;99.90;;;;;;5053234;28;20063;-83
2022/06/11 08:12:11;;;;;;;22.98;4.70;;;20.10;99.90;;;;;;5053064;28;20037;-85
2022/06/11 08:14:36;;;;;;;23.08;4.63;;;20.00;99.90;;;;;;5053249;28;20098;-78
2022/06/11 08:17:02;;;;;;;26.13;4.68;;;19.90;99.90;;;;;;5053210;28;20041;-79
2022/06/11 08:19:28;;;;;;;18.55;4.57;;;19.90;99.90;;;;;;5053142;28;20376;-78
2022/06/11 08:21:56;;;;;;;22.67;4.05;;;20.00;99.90;;;;;;5053036;28;20110;-81
2022/06/11 08:24:22;;;;;;;31.60;5.25;;;20.10;99.90;;;;;;5034996;28;20045;-80
2022/06/11 08:26:47;;;;;;;28.10;6.35;;;20.10;99.90;;;;;;5035423;28;20395;-81
2022/06/11 08:29:13;;;;;;;22.73;4.57;;;19.90;99.90;;;;;;5053191;28;20044;-81
2022/06/11 08:31:38;;;;;;;25.83;4.85;;;20.10;99.90;;;;;;5053247;28;20396;-80
2022/06/11 08:34:04;;;;;;;19.92;4.22;;;20.20;99.90;;;;;;5053206;28;20170;-81
2022/06/11 08:36:30;;;;;;;17.65;4.25;;;20.00;99.90;;;;;;5052768;28;20059;-82
2022/06/11 08:38:55;;;;;;;19.75;3.88;;;20.30;99.90;;;;;;5052811;28;20076;-79
2022/06/11 08:41:27;;;;;;;19.60;4.03;;;20.50;99.90;;;;;;5024963;28;20413;-79
2022/06/11 08:44:05;;;;;;;19.20;4.07;;;20.50;99.90;;;;;;5032684;28;20052;-80
2022/06/11 08:46:35;;;;;;;19.02;4.75;;;20.60;99.90;;;;;;5014486;28;20057;-79
2022/06/11 08:49:11;;;;;;;22.98;4.07;;;20.80;99.90;;;;;;5014850;28;20049;-82
2022/06/11 08:52:02;;;;;;;27.27;4.38;;;20.70;99.90;;;;;;5032599;28;20053;-85
2022/06/11 08:54:33;;;;;;;23.42;4.45;;;20.50;99.90;;;;;;5032655;28;20404;-80
2022/06/11 08:57:37;;;;;;;20.23;3.88;;;20.70;99.90;;;;;;5032577;28;20050;-83
2022/06/11 09:00:02;;;;;;;22.40;3.83;;;20.80;99.90;;;;;;5031267;28;20068;-80
2022/06/11 09:02:49;;;;;;;23.63;4.63;;;21.00;99.90;;;;;;5032441;28;20052;-81
2022/06/11 09:05:18;;;;;;;23.73;4.50;;;21.30;99.90;;;;;;5014526;28;20516;-80
2022/06/11 09:07:55;;;;;;;27.02;4.28;;;21.30;99.90;;;;;;5014731;28;20106;-80
2022/06/11 09:10:42;;;;;;;19.42;3.65;;;21.20;99.90;;;;;;5032025;28;20049;-79
2022/06/11 09:13:13;;;;;;;20.60;3.78;;;21.40;99.90;;;;;;5032395;28;20041;-80
2022/06/11 09:16:02;;;;;;;12.70;2.75;;;21.30;99.90;;;;;;5031929;28;20049;-80
2022/06/11 09:18:49;;;;;;;18.48;3.00;;;21.30;99.90;;;;;;5031956;28;20059;-78
2022/06/11 09:21:39;;;;;;;21.15;3.30;;;21.50;99.90;;;;;;5032074;28;20049;-83
2022/06/11 09:24:16;;;;;;;16.60;2.67;;;21.60;99.90;;;;;;5031911;28;20067;-82
2022/06/11 09:27:10;;;;;;;18.55;3.47;;;21.80;99.90;;;;;;5014476;28;20056;-80
2022/06/11 09:30:04;;;;;;;16.48;3.05;;;21.90;99.90;;;;;;5028407;28;20057;-81
2022/06/11 09:32:45;;;;;;;17.98;3.45;;;21.90;99.90;;;;;;4931981;29;20087;-81
2022/06/11 09:35:27;;;;;;;14.65;2.92;;;21.90;99.90;;;;;;4931969;29;20047;-78
2022/06/11 09:37:58;;;;;;;12.57;2.97;;;22.10;99.90;;;;;;4932035;29;20123;-81
2022/06/11 09:40:38;;;;;;;13.15;2.88;;;22.30;99.90;;;;;;4931840;29;20122;-80
2022/06/11 09:43:12;;;;;;;14.25;2.78;;;22.20;99.90;;;;;;4934434;29;20138;-84
2022/06/11 09:45:57;;;;;;;;;;;22.20;99.90;;;;;;4934505;29;20075;-81
2022/06/11 09:48:37;;;;;;;15.48;3.30;;;22.20;99.90;;;;;;4934047;29;20402;-80
2022/06/11 09:51:38;;;;;;;13.80;2.47;;;22.20;99.90;;;;;;4934112;29;20137;-79
2022/06/11 09:54:25;;;;;;;16.45;3.10;;;22.30;99.90;;;;;;4941648;29;20052;-77
2022/06/11 09:57:15;;;;;;;15.45;2.65;;;22.30;99.90;;;;;;4950058;29;20055;-78
2022/06/11 10:00:06;;;;;;;11.43;2.85;;;22.50;99.90;;;;;;4934221;29;20487;-81
2022/06/11 10:05:29;;;;;;;12.75;2.45;;;22.40;99.90;;;;;;4911825;29;20055;-79
2022/06/11 10:08:07;;;;;;;12.60;2.88;;;22.10;99.90;;;;;;4911673;29;20100;-79
2022/06/11 10:10:36;;;;;;;15.45;2.97;;;21.80;99.90;;;;;;4949607;28;20082;-81
2022/06/11 10:13:14;;;;;;;15.35;2.70;;;21.90;99.90;;;;;;4969005;28;20054;-79
2022/06/11 10:15:42;;;;;;;16.70;2.70;;;22.00;99.90;;;;;;4968788;28;20518;-82
2022/06/11 10:18:17;;;;;;;16.30;3.33;;;22.00;99.90;;;;;;4968967;28;20075;-80
2022/06/11 10:20:58;;;;;;;13.27;2.75;;;22.10;99.90;;;;;;4969045;28;20133;-83
2022/06/11 10:23:37;;;;;;;16.48;2.85;;;22.30;99.90;;;;;;4953036;28;20114;-81
2022/06/11 10:26:22;;;;;;;11.70;2.67;;;22.40;99.90;;;;;;4968852;28;20153;-81
2022/06/11 10:29:25;;;;;;;12.52;3.03;;;22.50;99.90;;;;;;4968891;28;20375;-81
2022/06/11 10:32:20;;;;;;;13.95;2.60;;;22.50;99.90;;;;;;4968507;28;20085;-83
2022/06/11 10:34:56;;;;;;;13.27;2.33;;;22.20;99.90;;;;;;4952834;28;20138;-85
2022/06/11 10:37:29;;;;;;;15.45;2.55;;;22.10;99.90;;;;;;4968850;28;20453;-82
2022/06/11 10:43:15;;;;;;;17.50;3.17;;;21.80;99.90;;;;;;5087926;27;20807;-80
2022/06/11 10:45:42;;;;;;;12.95;2.70;;;21.60;99.90;;;;;;5088072;28;20072;-81
2022/06/11 10:48:18;;;;;;;14.15;3.33;;;21.60;99.90;;;;;;5087922;28;20059;-81
2022/06/11 10:50:45;;;;;;;14.02;2.67;;;21.80;99.90;;;;;;5088211;28;20068;-82
2022/06/11 10:53:36;;;;;;;13.95;3.72;;;22.10;99.90;;;;;;5087917;28;20109;-79
2022/06/11 10:56:25;;;;;;;17.98;3.92;;;22.20;99.90;;;;;;5088106;28;20041;-81
2022/06/11 10:59:09;;;;;;;12.30;3.00;;;22.30;99.90;;;;;;5087585;28;20067;-79
2022/06/11 11:01:41;;;;;;;12.15;2.67;;;22.20;99.90;;;;;;5087517;28;20048;-80
2022/06/11 11:04:34;;;;;;;12.55;2.38;;;22.40;99.90;;;;;;5087807;28;20055;-81
2022/06/11 11:07:14;;;;;;;15.52;2.65;;;22.30;99.90;;;;;;5086392;28;20052;-80
2022/06/11 11:09:40;;;;;;;15.90;3.17;;;22.30;99.90;;;;;;5087848;28;20150;-78
2022/06/11 11:12:16;;;;;;;14.55;2.55;;;22.20;99.90;;;;;;5087523;28;20082;-79
2022/06/11 11:14:44;;;;;;;17.13;3.15;;;22.20;99.90;;;;;;5087640;28;20380;-78
2022/06/11 11:17:22;;;;;;;12.48;3.05;;;22.30;99.90;;;;;;5087630;28;20056;-81
2022/06/11 11:22:53;;;;;;;13.60;2.53;;;22.60;99.90;;;;;;5086281;28;20131;-80
2022/06/11 11:25:24;;;;;;;20.95;3.20;;;22.50;99.90;;;;;;5087490;28;20037;-80
2022/06/11 11:27:50;;;;;;;18.73;2.78;;;22.20;99.90;;;;;;5085964;28;20055;-82
2022/06/11 11:30:15;;;;;;;13.10;2.40;;;22.20;99.90;;;;;;5087255;28;20173;-77
2022/06/11 11:32:44;;;;;;;12.95;2.38;;;22.40;99.90;;;;;;5086868;28;20040;-81
2022/06/11 11:35:17;;;;;;;23.92;3.17;;;22.70;99.90;;;;;;5087103;28;20048;-78
2022/06/11 11:37:45;;;;;;;13.57;2.72;;;22.70;99.90;;;;;;5087464;28;20040;-80
2022/06/11 11:40:28;;;;;;;16.08;2.90;;;22.70;99.90;;;;;;5087269;28;20050;-80
2022/06/11 11:43:03;;;;;;;13.23;2.35;;;22.90;99.90;;;;;;5085408;28;20092;-78
2022/06/11 11:45:43;;;;;;;12.52;2.33;;;22.90;99.90;;;;;;5087040;28;20067;-82
2022/06/11 11:48:14;;;;;;;12.25;2.40;;;22.70;99.70;;;;;;5085231;28;20048;-79
2022/06/11 11:50:41;;;;;;;10.32;1.88;;;22.50;99.90;;;;;;5086858;28;20048;-82
2022/06/11 11:53:29;;;;;;;15.50;2.58;;;22.30;99.90;;;;;;5080499;28;20047;-81
2022/06/11 11:55:58;;;;;;;13.07;2.65;;;22.00;99.90;;;;;;5073035;28;20048;-79
2022/06/11 11:58:36;;;;;;;9.63;2.47;;;22.20;99.90;;;;;;5073085;28;20076;-82
2022/06/11 12:01:15;;;;;;;7.95;1.67;;;22.40;99.90;;;;;;5072006;28;20094;-79
2022/06/11 12:03:42;;;;;;;12.05;2.15;;;22.60;99.90;;;;;;5071807;28;20174;-80
2022/06/11 12:06:12;;;;;;;11.02;2.08;;;22.70;99.50;;;;;;5073151;28;20123;-80
2022/06/11 12:08:48;;;;;;;11.10;2.13;;;22.60;99.60;;;;;;5072976;28;20048;-79
2022/06/11 12:11:26;;;;;;;10.38;2.25;;;22.70;99.90;;;;;;5072933;28;20047;-79
2022/06/11 12:13:58;;;;;;;9.38;1.85;;;22.80;99.90;;;;;;5072994;28;20102;-79
2022/06/11 12:16:35;;;;;;;11.07;1.98;;;22.90;99.10;;;;;;5072928;28;20048;-80
2022/06/11 12:19:27;;;;;;;10.23;2.25;;;23.00;99.50;;;;;;5071559;28;20044;-80
2022/06/11 12:22:22;;;;;;;15.23;2.40;;;23.10;99.90;;;;;;5072966;28;20101;-78
2022/06/11 12:24:51;;;;;;;11.18;1.95;;;23.30;99.90;;;;;;5072722;28;20052;-80
2022/06/11 12:27:33;;;;;;;12.18;1.83;;;23.30;99.40;;;;;;5072766;28;20494;-78
2022/06/11 12:30:04;;;;;;;12.90;2.20;;;23.30;99.70;;;;;;5072538;28;20052;-81
2022/06/11 12:32:32;;;;;;;11.15;2.22;;;23.50;99.50;;;;;;5072438;28;20032;-80
2022/06/11 12:35:02;;;;;;;13.90;2.17;;;23.70;99.90;;;;;;5072343;28;20044;-82
2022/06/11 12:37:36;;;;;;;10.00;1.60;;;23.80;99.50;;;;;;5071112;28;20041;-79
2022/06/11 12:40:26;;;;;;;10.10;1.63;;;23.80;97.80;;;;;;5071267;28;20056;-80
2022/06/11 12:43:13;;;;;;;11.43;1.98;;;23.60;98.20;;;;;;5072135;28;20132;-78
2022/06/11 12:45:50;;;;;;;13.70;2.17;;;23.60;98.10;;;;;;5072250;28;20084;-84
2022/06/11 12:48:22;;;;;;;16.50;2.20;;;23.70;98.70;;;;;;5072423;28;20075;-82
2022/06/11 12:51:00;;;;;;;10.07;1.60;;;23.70;98.80;;;;;;5071952;28;20052;-83
2022/06/11 12:53:40;;;;;;;11.07;2.78;;;23.60;97.60;;;;;;5071195;28;20049;-77
2022/06/11 12:56:31;;;;;;;9.13;2.03;;;23.60;98.20;;;;;;5070799;28;20090;-78
2022/06/11 12:59:27;;;;;;;14.57;2.10;;;23.60;98.50;;;;;;5072131;28;20036;-80
2022/06/11 13:02:12;;;;;;;12.25;2.33;;;23.70;98.70;;;;;;5072099;28;20055;-78
2022/06/11 13:05:06;;;;;;;9.30;2.00;;;23.60;99.10;;;;;;5071010;28;20550;-84
2022/06/11 13:07:50;;;;;;;9.80;2.22;;;23.50;98.50;;;;;;5032520;28;20124;-80
2022/06/11 13:10:39;;;;;;;11.63;2.13;;;23.20;97.90;;;;;;5032817;28;20045;-80
2022/06/11 13:13:08;;;;;;;10.82;2.42;;;23.30;97.80;;;;;;5049487;28;20192;-80
2022/06/11 13:15:52;;;;;;;13.32;2.30;;;23.40;99.30;;;;;;5032856;28;20053;-83
2022/06/11 13:18:32;;;;;;;13.43;2.63;;;23.50;99.20;;;;;;5049648;28;20522;-83